sensor_id;sensor_type;location;lat;lon;timestamp;P1;durP1;ratioP1;P2;durP2;ratioP2
34405;SDS011;20658;45.630;8.886;2024-03-06T00:01:45;0.40;;;0.10;;
34405;SDS011;20658;45.630;8.886;2024-03-06T00:04:19;0.85;;;0.10;;
34405;SDS011;20658;45.630;8.886;2024-03-06T00:06:52;8.05;;;1.58;;
34405;SDS011;20658;45.630;8.886;2024-03-06T00:09:26;0.45;;;0.20;;
34405;SDS011;20658;45.630;8.886;2024-03-06T00:12:02;0.63;;;0.22;;
34405;SDS011;20658;45.630;8.886;2024-03-06T00:14:37;0.30;;;0.10;;
34405;SDS011;20658;45.630;8.886;2024-03-06T00:17:11;0.32;;;0.20;;
34405;SDS011;20658;45.630;8.886;2024-03-06T00:19:44;0.73;;;0.38;;
34405;SDS011;20658;45.630;8.886;2024-03-06T00:22:18;1.65;;;0.20;;
34405;SDS011;20658;45.630;8.886;2024-03-06T00:24:51;0.75;;;0.40;;
34405;SDS011;20658;45.630;8.886;2024-03-06T00:27:26;1.15;;;0.47;;
34405;SDS011;20658;45.630;8.886;2024-03-06T00:30:00;3.03;;;0.60;;
34405;SDS011;20658;45.630;8.886;2024-03-06T00:32:33;1.17;;;0.43;;
34405;SDS011;20658;45.630;8.886;2024-03-06T00:35:07;1.08;;;0.38;;
34405;SDS011;20658;45.630;8.886;2024-03-06T00:37:41;0.47;;;0.30;;
34405;SDS011;20658;45.630;8.886;2024-03-06T00:40:14;0.57;;;0.20;;
34405;SDS011;20658;45.630;8.886;2024-03-06T00:42:49;0.73;;;0.40;;
34405;SDS011;20658;45.630;8.886;2024-03-06T00:45:23;0.60;;;0.30;;
34405;SDS011;20658;45.630;8.886;2024-03-06T00:47:57;0.90;;;0.30;;
34405;SDS011;20658;45.630;8.886;2024-03-06T00:50:25;0.20;;;0.13;;
34405;SDS011;20658;45.630;8.886;2024-03-06T00:52:59;1.70;;;0.47;;
34405;SDS011;20658;45.630;8.886;2024-03-06T00:55:27;3.17;;;1.20;;
34405;SDS011;20658;45.630;8.886;2024-03-06T00:58:02;6.35;;;2.28;;
34405;SDS011;20658;45.630;8.886;2024-03-06T01:00:38;3.45;;;1.65;;
34405;SDS011;20658;45.630;8.886;2024-03-06T01:03:12;3.10;;;1.30;;
34405;SDS011;20658;45.630;8.886;2024-03-06T01:05:40;3.45;;;1.60;;
34405;SDS011;20658;45.630;8.886;2024-03-06T01:08:14;3.47;;;1.35;;
34405;SDS011;20658;45.630;8.886;2024-03-06T01:10:49;3.67;;;1.40;;
34405;SDS011;20658;45.630;8.886;2024-03-06T01:13:19;1.88;;;0.80;;
34405;SDS011;20658;45.630;8.886;2024-03-06T01:15:53;4.95;;;0.98;;
34405;SDS011;20658;45.630;8.886;2024-03-06T01:18:26;2.10;;;0.82;;
34405;SDS011;20658;45.630;8.886;2024-03-06T01:21:00;3.67;;;1.23;;
34405;SDS011;20658;45.630;8.886;2024-03-06T01:23:34;3.58;;;1.35;;
34405;SDS011;20658;45.630;8.886;2024-03-06T01:26:08;2.80;;;1.42;;
34405;SDS011;20658;45.630;8.886;2024-03-06T01:28:44;4.55;;;1.25;;
34405;SDS011;20658;45.630;8.886;2024-03-06T01:31:17;1.42;;;0.50;;
34405;SDS011;20658;45.630;8.886;2024-03-06T01:33:51;2.40;;;0.70;;
34405;SDS011;20658;45.630;8.886;2024-03-06T01:36:25;1.30;;;0.57;;
34405;SDS011;20658;45.630;8.886;2024-03-06T01:38:58;0.70;;;0.30;;
34405;SDS011;20658;45.630;8.886;2024-03-06T01:41:31;0.50;;;0.30;;
34405;SDS011;20658;45.630;8.886;2024-03-06T01:44:06;2.15;;;0.50;;
34405;SDS011;20658;45.630;8.886;2024-03-06T01:46:40;2.05;;;1.00;;
34405;SDS011;20658;45.630;8.886;2024-03-06T01:49:14;1.63;;;0.70;;
34405;SDS011;20658;45.630;8.886;2024-03-06T01:51:49;2.35;;;0.57;;
34405;SDS011;20658;45.630;8.886;2024-03-06T01:54:25;0.98;;;0.15;;
34405;SDS011;20658;45.630;8.886;2024-03-06T01:57:00;5.13;;;0.60;;
34405;SDS011;20658;45.630;8.886;2024-03-06T01:59:37;1.67;;;0.65;;
34405;SDS011;20658;45.630;8.886;2024-03-06T02:02:10;2.80;;;0.50;;
34405;SDS011;20658;45.630;8.886;2024-03-06T02:04:44;1.58;;;0.52;;
34405;SDS011;20658;45.630;8.886;2024-03-06T02:07:17;1.20;;;0.50;;
34405;SDS011;20658;45.630;8.886;2024-03-06T02:09:47;1.33;;;0.65;;
34405;SDS011;20658;45.630;8.886;2024-03-06T02:12:21;0.20;;;0.20;;
34405;SDS011;20658;45.630;8.886;2024-03-06T02:14:56;1.88;;;0.30;;
34405;SDS011;20658;45.630;8.886;2024-03-06T02:17:29;0.90;;;0.30;;
34405;SDS011;20658;45.630;8.886;2024-03-06T02:20:03;3.28;;;1.27;;
34405;SDS011;20658;45.630;8.886;2024-03-06T02:22:40;2.92;;;1.10;;
34405;SDS011;20658;45.630;8.886;2024-03-06T02:25:13;2.50;;;0.55;;
34405;SDS011;20658;45.630;8.886;2024-03-06T02:27:47;1.52;;;0.32;;
34405;SDS011;20658;45.630;8.886;2024-03-06T02:30:21;1.52;;;0.60;;
34405;SDS011;20658;45.630;8.886;2024-03-06T02:32:54;5.53;;;1.67;;
34405;SDS011;20658;45.630;8.886;2024-03-06T02:35:23;6.32;;;1.63;;
34405;SDS011;20658;45.630;8.886;2024-03-06T02:37:58;5.38;;;1.33;;
34405;SDS011;20658;45.630;8.886;2024-03-06T02:40:33;3.42;;;1.42;;
34405;SDS011;20658;45.630;8.886;2024-03-06T02:43:06;1.42;;;0.60;;
34405;SDS011;20658;45.630;8.886;2024-03-06T02:45:40;2.50;;;0.50;;
34405;SDS011;20658;45.630;8.886;2024-03-06T02:48:08;2.53;;;0.73;;
34405;SDS011;20658;45.630;8.886;2024-03-06T02:50:43;8.52;;;3.08;;
34405;SDS011;20658;45.630;8.886;2024-03-06T02:53:13;4.13;;;1.75;;
34405;SDS011;20658;45.630;8.886;2024-03-06T02:55:47;9.20;;;2.58;;
34405;SDS011;20658;45.630;8.886;2024-03-06T02:58:20;4.28;;;1.50;;
34405;SDS011;20658;45.630;8.886;2024-03-06T03:00:49;2.50;;;1.20;;
34405;SDS011;20658;45.630;8.886;2024-03-06T03:03:22;2.28;;;0.73;;
34405;SDS011;20658;45.630;8.886;2024-03-06T03:05:51;3.45;;;0.82;;
34405;SDS011;20658;45.630;8.886;2024-03-06T03:08:26;0.32;;;0.20;;
34405;SDS011;20658;45.630;8.886;2024-03-06T03:10:59;2.38;;;0.70;;
34405;SDS011;20658;45.630;8.886;2024-03-06T03:13:33;3.63;;;1.08;;
34405;SDS011;20658;45.630;8.886;2024-03-06T03:16:06;6.97;;;1.27;;
34405;SDS011;20658;45.630;8.886;2024-03-06T03:21:22;4.72;;;1.20;;
34405;SDS011;20658;45.630;8.886;2024-03-06T03:23:57;3.53;;;1.17;;
34405;SDS011;20658;45.630;8.886;2024-03-06T03:26:30;0.98;;;0.40;;
34405;SDS011;20658;45.630;8.886;2024-03-06T03:29:04;0.70;;;0.30;;
34405;SDS011;20658;45.630;8.886;2024-03-06T03:31:37;1.85;;;0.30;;
34405;SDS011;20658;45.630;8.886;2024-03-06T03:34:11;0.70;;;0.25;;
34405;SDS011;20658;45.630;8.886;2024-03-06T03:36:44;0.57;;;0.10;;
34405;SDS011;20658;45.630;8.886;2024-03-06T03:39:15;1.67;;;0.20;;
34405;SDS011;20658;45.630;8.886;2024-03-06T03:41:49;0.52;;;0.17;;
34405;SDS011;20658;45.630;8.886;2024-03-06T03:44:23;0.40;;;0.28;;
34405;SDS011;20658;45.630;8.886;2024-03-06T03:46:56;1.65;;;0.15;;
34405;SDS011;20658;45.630;8.886;2024-03-06T03:49:29;0.50;;;0.20;;
34405;SDS011;20658;45.630;8.886;2024-03-06T03:54:56;1.15;;;0.22;;
34405;SDS011;20658;45.630;8.886;2024-03-06T03:57:25;0.57;;;0.25;;
34405;SDS011;20658;45.630;8.886;2024-03-06T03:59:58;2.42;;;0.57;;
34405;SDS011;20658;45.630;8.886;2024-03-06T04:02:37;1.73;;;0.50;;
34405;SDS011;20658;45.630;8.886;2024-03-06T04:05:11;1.45;;;0.65;;
34405;SDS011;20658;45.630;8.886;2024-03-06T04:07:44;2.80;;;0.70;;
34405;SDS011;20658;45.630;8.886;2024-03-06T04:10:19;4.30;;;0.82;;
34405;SDS011;20658;45.630;8.886;2024-03-06T04:12:53;3.05;;;0.60;;
34405;SDS011;20658;45.630;8.886;2024-03-06T04:15:26;1.98;;;0.70;;
34405;SDS011;20658;45.630;8.886;2024-03-06T04:18:00;9.40;;;2.95;;
34405;SDS011;20658;45.630;8.886;2024-03-06T04:20:33;10.63;;;3.10;;
34405;SDS011;20658;45.630;8.886;2024-03-06T04:23:07;6.28;;;1.80;;
34405;SDS011;20658;45.630;8.886;2024-03-06T04:25:42;7.00;;;2.60;;
34405;SDS011;20658;45.630;8.886;2024-03-06T04:28:11;2.78;;;1.10;;
34405;SDS011;20658;45.630;8.886;2024-03-06T04:30:44;7.18;;;1.83;;
34405;SDS011;20658;45.630;8.886;2024-03-06T04:33:18;7.13;;;1.15;;
34405;SDS011;20658;45.630;8.886;2024-03-06T04:35:51;2.08;;;0.80;;
34405;SDS011;20658;45.630;8.886;2024-03-06T04:38:20;3.95;;;0.98;;
34405;SDS011;20658;45.630;8.886;2024-03-06T04:40:55;2.30;;;0.60;;
34405;SDS011;20658;45.630;8.886;2024-03-06T04:43:28;2.58;;;0.93;;
34405;SDS011;20658;45.630;8.886;2024-03-06T04:46:02;5.22;;;0.63;;
34405;SDS011;20658;45.630;8.886;2024-03-06T04:48:35;2.20;;;0.68;;
34405;SDS011;20658;45.630;8.886;2024-03-06T04:51:04;3.78;;;0.70;;
34405;SDS011;20658;45.630;8.886;2024-03-06T04:53:37;2.78;;;0.80;;
34405;SDS011;20658;45.630;8.886;2024-03-06T04:56:08;3.65;;;0.88;;
34405;SDS011;20658;45.630;8.886;2024-03-06T04:58:42;3.58;;;1.10;;
34405;SDS011;20658;45.630;8.886;2024-03-06T05:01:15;4.95;;;1.10;;
34405;SDS011;20658;45.630;8.886;2024-03-06T05:03:49;5.50;;;2.00;;
34405;SDS011;20658;45.630;8.886;2024-03-06T05:06:35;3.72;;;1.33;;
34405;SDS011;20658;45.630;8.886;2024-03-06T05:09:21;6.13;;;2.03;;
34405;SDS011;20658;45.630;8.886;2024-03-06T05:12:09;1.23;;;0.65;;
34405;SDS011;20658;45.630;8.886;2024-03-06T05:14:55;0.98;;;0.38;;
34405;SDS011;20658;45.630;8.886;2024-03-06T05:17:41;0.47;;;0.30;;
34405;SDS011;20658;45.630;8.886;2024-03-06T05:20:27;0.43;;;0.28;;
34405;SDS011;20658;45.630;8.886;2024-03-06T05:23:15;0.95;;;0.20;;
34405;SDS011;20658;45.630;8.886;2024-03-06T05:26:01;0.38;;;0.10;;
34405;SDS011;20658;45.630;8.886;2024-03-06T05:28:49;0.30;;;0.10;;
34405;SDS011;20658;45.630;8.886;2024-03-06T05:31:35;1.00;;;0.40;;
34405;SDS011;20658;45.630;8.886;2024-03-06T05:34:21;1.85;;;0.73;;
34405;SDS011;20658;45.630;8.886;2024-03-06T05:37:07;1.25;;;0.60;;
34405;SDS011;20658;45.630;8.886;2024-03-06T05:39:53;1.80;;;0.60;;
34405;SDS011;20658;45.630;8.886;2024-03-06T05:42:39;4.32;;;0.65;;
34405;SDS011;20658;45.630;8.886;2024-03-06T05:45:27;2.42;;;0.30;;
34405;SDS011;20658;45.630;8.886;2024-03-06T05:48:13;2.20;;;0.30;;
34405;SDS011;20658;45.630;8.886;2024-03-06T05:50:59;2.38;;;0.30;;
34405;SDS011;20658;45.630;8.886;2024-03-06T05:53:45;0.60;;;0.30;;
34405;SDS011;20658;45.630;8.886;2024-03-06T05:56:31;2.42;;;0.30;;
34405;SDS011;20658;45.630;8.886;2024-03-06T05:59:18;3.17;;;0.50;;
34405;SDS011;20658;45.630;8.886;2024-03-06T06:01:48;0.80;;;0.20;;
34405;SDS011;20658;45.630;8.886;2024-03-06T06:04:21;4.20;;;0.50;;
34405;SDS011;20658;45.630;8.886;2024-03-06T06:06:55;1.70;;;0.63;;
34405;SDS011;20658;45.630;8.886;2024-03-06T06:09:28;1.38;;;0.25;;
34405;SDS011;20658;45.630;8.886;2024-03-06T06:11:58;0.47;;;0.20;;
34405;SDS011;20658;45.630;8.886;2024-03-06T06:14:31;0.20;;;0.17;;
34405;SDS011;20658;45.630;8.886;2024-03-06T06:17:01;0.60;;;0.10;;
34405;SDS011;20658;45.630;8.886;2024-03-06T06:19:30;0.68;;;0.15;;
34405;SDS011;20658;45.630;8.886;2024-03-06T06:22:04;0.20;;;0.10;;
34405;SDS011;20658;45.630;8.886;2024-03-06T06:24:38;3.53;;;0.17;;
34405;SDS011;20658;45.630;8.886;2024-03-06T06:27:07;0.20;;;0.10;;
34405;SDS011;20658;45.630;8.886;2024-03-06T06:29:40;1.13;;;0.40;;
34405;SDS011;20658;45.630;8.886;2024-03-06T06:32:10;1.45;;;0.10;;
34405;SDS011;20658;45.630;8.886;2024-03-06T06:34:39;0.70;;;0.28;;
34405;SDS011;20658;45.630;8.886;2024-03-06T06:37:07;0.98;;;0.40;;
34405;SDS011;20658;45.630;8.886;2024-03-06T06:39:36;0.40;;;0.20;;
34405;SDS011;20658;45.630;8.886;2024-03-06T06:42:05;0.73;;;0.40;;
34405;SDS011;20658;45.630;8.886;2024-03-06T06:44:38;1.42;;;0.85;;
34405;SDS011;20658;45.630;8.886;2024-03-06T06:47:14;6.90;;;3.15;;
34405;SDS011;20658;45.630;8.886;2024-03-06T06:49:44;4.70;;;2.10;;
34405;SDS011;20658;45.630;8.886;2024-03-06T06:52:14;2.45;;;0.70;;
34405;SDS011;20658;45.630;8.886;2024-03-06T06:54:48;6.32;;;1.48;;
34405;SDS011;20658;45.630;8.886;2024-03-06T06:57:22;3.00;;;1.02;;
34405;SDS011;20658;45.630;8.886;2024-03-06T06:59:56;2.38;;;1.05;;
34405;SDS011;20658;45.630;8.886;2024-03-06T07:02:31;4.28;;;1.25;;
34405;SDS011;20658;45.630;8.886;2024-03-06T07:04:59;4.28;;;1.77;;
34405;SDS011;20658;45.630;8.886;2024-03-06T07:07:33;3.25;;;1.25;;
34405;SDS011;20658;45.630;8.886;2024-03-06T07:10:02;2.60;;;1.25;;
34405;SDS011;20658;45.630;8.886;2024-03-06T07:12:31;1.98;;;0.40;;
34405;SDS011;20658;45.630;8.886;2024-03-06T07:15:00;2.17;;;0.60;;
34405;SDS011;20658;45.630;8.886;2024-03-06T07:17:35;2.53;;;0.95;;
34405;SDS011;20658;45.630;8.886;2024-03-06T07:20:05;1.90;;;0.60;;
34405;SDS011;20658;45.630;8.886;2024-03-06T07:22:35;1.23;;;0.50;;
34405;SDS011;20658;45.630;8.886;2024-03-06T07:25:04;3.13;;;1.38;;
34405;SDS011;20658;45.630;8.886;2024-03-06T07:27:38;3.47;;;1.15;;
34405;SDS011;20658;45.630;8.886;2024-03-06T07:30:12;6.53;;;1.17;;
34405;SDS011;20658;45.630;8.886;2024-03-06T07:32:47;5.05;;;0.88;;
34405;SDS011;20658;45.630;8.886;2024-03-06T07:35:21;3.60;;;0.90;;
34405;SDS011;20658;45.630;8.886;2024-03-06T07:37:55;1.45;;;0.45;;
34405;SDS011;20658;45.630;8.886;2024-03-06T07:40:23;1.58;;;0.40;;
34405;SDS011;20658;45.630;8.886;2024-03-06T07:42:57;4.53;;;0.85;;
34405;SDS011;20658;45.630;8.886;2024-03-06T07:45:31;2.72;;;0.60;;
34405;SDS011;20658;45.630;8.886;2024-03-06T07:48:06;0.52;;;0.40;;
34405;SDS011;20658;45.630;8.886;2024-03-06T07:50:36;4.18;;;0.50;;
34405;SDS011;20658;45.630;8.886;2024-03-06T07:53:10;1.65;;;0.55;;
34405;SDS011;20658;45.630;8.886;2024-03-06T07:55:38;1.77;;;0.57;;
34405;SDS011;20658;45.630;8.886;2024-03-06T07:58:12;2.67;;;0.22;;
34405;SDS011;20658;45.630;8.886;2024-03-06T08:00:42;1.88;;;1.20;;
34405;SDS011;20658;45.630;8.886;2024-03-06T08:03:12;1.20;;;0.30;;
34405;SDS011;20658;45.630;8.886;2024-03-06T08:05:46;1.33;;;0.50;;
34405;SDS011;20658;45.630;8.886;2024-03-06T08:08:20;1.67;;;0.50;;
34405;SDS011;20658;45.630;8.886;2024-03-06T08:10:50;3.33;;;0.98;;
34405;SDS011;20658;45.630;8.886;2024-03-06T08:13:23;4.10;;;2.15;;
34405;SDS011;20658;45.630;8.886;2024-03-06T08:15:57;1.88;;;0.80;;
34405;SDS011;20658;45.630;8.886;2024-03-06T08:18:27;7.13;;;2.88;;
34405;SDS011;20658;45.630;8.886;2024-03-06T08:21:00;8.38;;;2.60;;
34405;SDS011;20658;45.630;8.886;2024-03-06T08:23:36;2.28;;;0.90;;
34405;SDS011;20658;45.630;8.886;2024-03-06T08:26:10;5.28;;;2.13;;
34405;SDS011;20658;45.630;8.886;2024-03-06T08:28:44;5.65;;;1.98;;
34405;SDS011;20658;45.630;8.886;2024-03-06T08:31:18;8.65;;;1.70;;
34405;SDS011;20658;45.630;8.886;2024-03-06T08:33:54;2.83;;;0.85;;
34405;SDS011;20658;45.630;8.886;2024-03-06T08:36:28;4.15;;;1.42;;
34405;SDS011;20658;45.630;8.886;2024-03-06T08:39:01;4.00;;;1.50;;
34405;SDS011;20658;45.630;8.886;2024-03-06T08:41:36;2.53;;;1.48;;
34405;SDS011;20658;45.630;8.886;2024-03-06T08:44:05;5.65;;;1.40;;
34405;SDS011;20658;45.630;8.886;2024-03-06T08:46:38;3.72;;;1.85;;
34405;SDS011;20658;45.630;8.886;2024-03-06T08:49:14;4.97;;;1.55;;
34405;SDS011;20658;45.630;8.886;2024-03-06T08:51:47;3.38;;;1.55;;
34405;SDS011;20658;45.630;8.886;2024-03-06T08:54:16;5.75;;;2.20;;
34405;SDS011;20658;45.630;8.886;2024-03-06T08:56:44;4.53;;;1.58;;
34405;SDS011;20658;45.630;8.886;2024-03-06T08:59:13;2.60;;;1.30;;
34405;SDS011;20658;45.630;8.886;2024-03-06T09:01:42;9.60;;;2.72;;
34405;SDS011;20658;45.630;8.886;2024-03-06T09:04:11;6.10;;;1.80;;
34405;SDS011;20658;45.630;8.886;2024-03-06T09:06:41;7.15;;;2.53;;
34405;SDS011;20658;45.630;8.886;2024-03-06T09:09:14;8.88;;;1.30;;
34405;SDS011;20658;45.630;8.886;2024-03-06T09:11:43;5.47;;;1.70;;
34405;SDS011;20658;45.630;8.886;2024-03-06T09:14:12;5.85;;;2.08;;
34405;SDS011;20658;45.630;8.886;2024-03-06T09:16:40;5.28;;;2.33;;
34405;SDS011;20658;45.630;8.886;2024-03-06T09:19:14;7.30;;;2.28;;
34405;SDS011;20658;45.630;8.886;2024-03-06T09:21:49;10.32;;;2.40;;
34405;SDS011;20658;45.630;8.886;2024-03-06T09:24:23;4.60;;;1.88;;
34405;SDS011;20658;45.630;8.886;2024-03-06T09:26:52;8.00;;;1.77;;
34405;SDS011;20658;45.630;8.886;2024-03-06T09:29:26;9.32;;;3.20;;
34405;SDS011;20658;45.630;8.886;2024-03-06T09:31:55;6.05;;;3.13;;
34405;SDS011;20658;45.630;8.886;2024-03-06T09:34:28;7.40;;;2.60;;
34405;SDS011;20658;45.630;8.886;2024-03-06T09:37:03;10.95;;;5.10;;
34405;SDS011;20658;45.630;8.886;2024-03-06T09:39:37;7.75;;;3.08;;
34405;SDS011;20658;45.630;8.886;2024-03-06T09:42:05;6.20;;;2.08;;
34405;SDS011;20658;45.630;8.886;2024-03-06T09:44:35;3.88;;;1.30;;
34405;SDS011;20658;45.630;8.886;2024-03-06T09:47:08;11.10;;;5.07;;
34405;SDS011;20658;45.630;8.886;2024-03-06T09:49:46;6.53;;;2.10;;
34405;SDS011;20658;45.630;8.886;2024-03-06T09:52:21;4.05;;;2.10;;
34405;SDS011;20658;45.630;8.886;2024-03-06T09:54:52;15.45;;;8.18;;
34405;SDS011;20658;45.630;8.886;2024-03-06T09:57:28;13.20;;;7.80;;
34405;SDS011;20658;45.630;8.886;2024-03-06T09:59:57;15.20;;;4.28;;
34405;SDS011;20658;45.630;8.886;2024-03-06T10:02:28;15.50;;;3.88;;
34405;SDS011;20658;45.630;8.886;2024-03-06T10:05:20;10.23;;;4.03;;
34405;SDS011;20658;45.630;8.886;2024-03-06T10:07:51;15.00;;;4.68;;
34405;SDS011;20658;45.630;8.886;2024-03-06T10:10:25;8.55;;;2.88;;
34405;SDS011;20658;45.630;8.886;2024-03-06T10:12:54;9.38;;;3.47;;
34405;SDS011;20658;45.630;8.886;2024-03-06T10:15:29;9.18;;;3.75;;
34405;SDS011;20658;45.630;8.886;2024-03-06T10:18:12;15.60;;;5.57;;
34405;SDS011;20658;45.630;8.886;2024-03-06T10:20:49;15.05;;;5.47;;
34405;SDS011;20658;45.630;8.886;2024-03-06T10:23:25;14.82;;;5.22;;
34405;SDS011;20658;45.630;8.886;2024-03-06T10:25:55;19.00;;;6.93;;
34405;SDS011;20658;45.630;8.886;2024-03-06T10:28:24;15.48;;;5.70;;
34405;SDS011;20658;45.630;8.886;2024-03-06T10:31:02;10.60;;;6.32;;
34405;SDS011;20658;45.630;8.886;2024-03-06T10:33:39;11.95;;;5.85;;
34405;SDS011;20658;45.630;8.886;2024-03-06T10:36:15;13.85;;;5.32;;
34405;SDS011;20658;45.630;8.886;2024-03-06T10:38:45;8.63;;;3.55;;
34405;SDS011;20658;45.630;8.886;2024-03-06T10:41:18;8.18;;;3.90;;
34405;SDS011;20658;45.630;8.886;2024-03-06T10:43:56;13.30;;;5.60;;
34405;SDS011;20658;45.630;8.886;2024-03-06T10:46:26;20.55;;;11.77;;
34405;SDS011;20658;45.630;8.886;2024-03-06T10:49:01;24.52;;;11.52;;
34405;SDS011;20658;45.630;8.886;2024-03-06T10:51:34;25.02;;;10.95;;
34405;SDS011;20658;45.630;8.886;2024-03-06T10:54:10;17.48;;;7.95;;
34405;SDS011;20658;45.630;8.886;2024-03-06T10:56:46;14.25;;;7.22;;
34405;SDS011;20658;45.630;8.886;2024-03-06T10:59:20;26.00;;;12.75;;
34405;SDS011;20658;45.630;8.886;2024-03-06T11:01:59;19.88;;;10.18;;
34405;SDS011;20658;45.630;8.886;2024-03-06T11:04:33;15.75;;;7.13;;
34405;SDS011;20658;45.630;8.886;2024-03-06T11:07:07;15.00;;;7.68;;
34405;SDS011;20658;45.630;8.886;2024-03-06T11:09:43;11.50;;;5.85;;
34405;SDS011;20658;45.630;8.886;2024-03-06T11:12:32;9.20;;;4.45;;
34405;SDS011;20658;45.630;8.886;2024-03-06T11:15:13;9.30;;;4.32;;
34405;SDS011;20658;45.630;8.886;2024-03-06T11:17:48;13.18;;;6.50;;
34405;SDS011;20658;45.630;8.886;2024-03-06T11:20:17;12.15;;;6.32;;
34405;SDS011;20658;45.630;8.886;2024-03-06T11:23:04;10.48;;;5.05;;
34405;SDS011;20658;45.630;8.886;2024-03-06T11:28:45;10.77;;;5.05;;
34405;SDS011;20658;45.630;8.886;2024-03-06T11:31:21;13.38;;;6.57;;
34405;SDS011;20658;45.630;8.886;2024-03-06T11:33:56;15.70;;;6.07;;
34405;SDS011;20658;45.630;8.886;2024-03-06T11:36:29;10.57;;;6.07;;
34405;SDS011;20658;45.630;8.886;2024-03-06T11:39:03;12.57;;;5.70;;
34405;SDS011;20658;45.630;8.886;2024-03-06T11:41:47;20.35;;;10.00;;
34405;SDS011;20658;45.630;8.886;2024-03-06T11:44:22;16.02;;;7.63;;
34405;SDS011;20658;45.630;8.886;2024-03-06T11:46:56;14.98;;;8.75;;
34405;SDS011;20658;45.630;8.886;2024-03-06T11:49:27;14.15;;;6.05;;
34405;SDS011;20658;45.630;8.886;2024-03-06T11:52:04;16.67;;;6.65;;
34405;SDS011;20658;45.630;8.886;2024-03-06T11:54:39;16.15;;;7.10;;
34405;SDS011;20658;45.630;8.886;2024-03-06T11:57:09;13.90;;;6.60;;
34405;SDS011;20658;45.630;8.886;2024-03-06T11:59:42;13.32;;;6.40;;
34405;SDS011;20658;45.630;8.886;2024-03-06T12:02:11;16.80;;;6.28;;
34405;SDS011;20658;45.630;8.886;2024-03-06T12:04:45;15.10;;;5.90;;
34405;SDS011;20658;45.630;8.886;2024-03-06T12:07:19;13.98;;;6.32;;
34405;SDS011;20658;45.630;8.886;2024-03-06T12:09:52;21.45;;;5.47;;
34405;SDS011;20658;45.630;8.886;2024-03-06T12:12:27;14.77;;;6.20;;
34405;SDS011;20658;45.630;8.886;2024-03-06T12:15:03;10.65;;;4.90;;
34405;SDS011;20658;45.630;8.886;2024-03-06T12:17:43;17.73;;;9.73;;
34405;SDS011;20658;45.630;8.886;2024-03-06T12:20:18;17.23;;;6.88;;
34405;SDS011;20658;45.630;8.886;2024-03-06T12:22:52;14.77;;;6.13;;
34405;SDS011;20658;45.630;8.886;2024-03-06T12:25:27;18.08;;;7.43;;
34405;SDS011;20658;45.630;8.886;2024-03-06T12:28:07;15.95;;;7.28;;
34405;SDS011;20658;45.630;8.886;2024-03-06T12:30:42;12.15;;;5.45;;
34405;SDS011;20658;45.630;8.886;2024-03-06T12:33:16;13.32;;;6.28;;
34405;SDS011;20658;45.630;8.886;2024-03-06T12:35:59;11.68;;;5.00;;
34405;SDS011;20658;45.630;8.886;2024-03-06T12:38:37;8.40;;;3.97;;
34405;SDS011;20658;45.630;8.886;2024-03-06T12:41:06;7.82;;;4.03;;
34405;SDS011;20658;45.630;8.886;2024-03-06T12:43:36;10.77;;;3.63;;
34405;SDS011;20658;45.630;8.886;2024-03-06T12:46:10;7.60;;;2.50;;
34405;SDS011;20658;45.630;8.886;2024-03-06T12:48:38;9.32;;;2.42;;
34405;SDS011;20658;45.630;8.886;2024-03-06T12:51:07;8.25;;;2.10;;
34405;SDS011;20658;45.630;8.886;2024-03-06T12:53:36;7.68;;;1.80;;
34405;SDS011;20658;45.630;8.886;2024-03-06T12:56:09;6.72;;;2.00;;
34405;SDS011;20658;45.630;8.886;2024-03-06T12:58:44;7.82;;;1.67;;
34405;SDS011;20658;45.630;8.886;2024-03-06T13:01:18;7.78;;;1.58;;
34405;SDS011;20658;45.630;8.886;2024-03-06T13:03:52;5.38;;;1.48;;
34405;SDS011;20658;45.630;8.886;2024-03-06T13:06:25;5.10;;;1.10;;
34405;SDS011;20658;45.630;8.886;2024-03-06T13:08:54;3.03;;;0.98;;
34405;SDS011;20658;45.630;8.886;2024-03-06T13:11:29;1.15;;;0.40;;
34405;SDS011;20658;45.630;8.886;2024-03-06T13:13:59;2.47;;;0.57;;
34405;SDS011;20658;45.630;8.886;2024-03-06T13:16:33;2.20;;;0.47;;
34405;SDS011;20658;45.630;8.886;2024-03-06T13:19:06;1.65;;;0.43;;
34405;SDS011;20658;45.630;8.886;2024-03-06T13:21:35;3.85;;;0.80;;
34405;SDS011;20658;45.630;8.886;2024-03-06T13:24:08;1.90;;;0.80;;
34405;SDS011;20658;45.630;8.886;2024-03-06T13:26:42;2.50;;;0.60;;
34405;SDS011;20658;45.630;8.886;2024-03-06T13:29:17;2.55;;;0.88;;
34405;SDS011;20658;45.630;8.886;2024-03-06T13:31:45;2.53;;;0.60;;
34405;SDS011;20658;45.630;8.886;2024-03-06T13:34:14;1.52;;;0.50;;
34405;SDS011;20658;45.630;8.886;2024-03-06T13:36:43;2.30;;;0.77;;
34405;SDS011;20658;45.630;8.886;2024-03-06T13:39:16;4.72;;;1.00;;
34405;SDS011;20658;45.630;8.886;2024-03-06T13:41:50;6.03;;;1.30;;
34405;SDS011;20658;45.630;8.886;2024-03-06T13:44:21;3.90;;;1.10;;
34405;SDS011;20658;45.630;8.886;2024-03-06T13:46:50;2.92;;;1.30;;
34405;SDS011;20658;45.630;8.886;2024-03-06T13:49:34;2.35;;;1.08;;
34405;SDS011;20658;45.630;8.886;2024-03-06T13:52:07;2.65;;;1.00;;
34405;SDS011;20658;45.630;8.886;2024-03-06T13:54:44;7.20;;;1.30;;
34405;SDS011;20658;45.630;8.886;2024-03-06T13:57:13;4.35;;;1.50;;
34405;SDS011;20658;45.630;8.886;2024-03-06T13:59:48;3.67;;;1.48;;
34405;SDS011;20658;45.630;8.886;2024-03-06T14:02:22;2.85;;;1.17;;
34405;SDS011;20658;45.630;8.886;2024-03-06T14:04:55;3.42;;;1.10;;
34405;SDS011;20658;45.630;8.886;2024-03-06T14:07:24;3.67;;;1.15;;
34405;SDS011;20658;45.630;8.886;2024-03-06T14:09:57;6.10;;;2.17;;
34405;SDS011;20658;45.630;8.886;2024-03-06T14:12:31;6.28;;;2.00;;
34405;SDS011;20658;45.630;8.886;2024-03-06T14:15:06;6.97;;;3.22;;
34405;SDS011;20658;45.630;8.886;2024-03-06T14:17:43;5.38;;;1.73;;
34405;SDS011;20658;45.630;8.886;2024-03-06T14:20:17;5.28;;;1.50;;
34405;SDS011;20658;45.630;8.886;2024-03-06T14:22:46;2.88;;;1.00;;
34405;SDS011;20658;45.630;8.886;2024-03-06T14:25:19;4.28;;;1.30;;
34405;SDS011;20658;45.630;8.886;2024-03-06T14:27:53;3.03;;;0.80;;
34405;SDS011;20658;45.630;8.886;2024-03-06T14:30:28;2.80;;;1.40;;
34405;SDS011;20658;45.630;8.886;2024-03-06T14:33:02;2.75;;;1.40;;
34405;SDS011;20658;45.630;8.886;2024-03-06T14:35:36;6.72;;;1.70;;
34405;SDS011;20658;45.630;8.886;2024-03-06T14:38:10;7.25;;;2.65;;
34405;SDS011;20658;45.630;8.886;2024-03-06T14:40:39;7.05;;;2.90;;
34405;SDS011;20658;45.630;8.886;2024-03-06T14:43:12;9.18;;;3.25;;
34405;SDS011;20658;45.630;8.886;2024-03-06T14:45:48;4.35;;;2.30;;
34405;SDS011;20658;45.630;8.886;2024-03-06T14:48:21;3.17;;;1.52;;
34405;SDS011;20658;45.630;8.886;2024-03-06T14:50:50;6.22;;;1.92;;
34405;SDS011;20658;45.630;8.886;2024-03-06T14:53:23;4.38;;;1.50;;
34405;SDS011;20658;45.630;8.886;2024-03-06T14:55:57;7.90;;;2.67;;
34405;SDS011;20658;45.630;8.886;2024-03-06T14:58:31;3.85;;;1.30;;
34405;SDS011;20658;45.630;8.886;2024-03-06T15:01:06;6.25;;;1.35;;
34405;SDS011;20658;45.630;8.886;2024-03-06T15:03:39;3.38;;;1.30;;
34405;SDS011;20658;45.630;8.886;2024-03-06T15:06:13;4.03;;;1.65;;
34405;SDS011;20658;45.630;8.886;2024-03-06T15:08:46;4.88;;;1.38;;
34405;SDS011;20658;45.630;8.886;2024-03-06T15:11:20;2.47;;;1.20;;
34405;SDS011;20658;45.630;8.886;2024-03-06T15:13:54;4.07;;;1.25;;
34405;SDS011;20658;45.630;8.886;2024-03-06T15:16:29;2.72;;;1.30;;
34405;SDS011;20658;45.630;8.886;2024-03-06T15:18:58;3.05;;;1.00;;
34405;SDS011;20658;45.630;8.886;2024-03-06T15:21:34;3.65;;;1.35;;
34405;SDS011;20658;45.630;8.886;2024-03-06T15:24:08;3.53;;;1.25;;
34405;SDS011;20658;45.630;8.886;2024-03-06T15:26:42;3.08;;;1.10;;
34405;SDS011;20658;45.630;8.886;2024-03-06T15:29:11;4.18;;;1.15;;
34405;SDS011;20658;45.630;8.886;2024-03-06T15:31:41;3.58;;;1.30;;
34405;SDS011;20658;45.630;8.886;2024-03-06T15:34:14;2.90;;;0.80;;